NKS100 KFLL-TNCM
Flight info
| Callsign | NKS100 |
|---|---|
| Flight time | 2h 25m |
| Altitude | 35000 |
| Route | SNAPR2 SUMAC Y421 HAGIT Y290 SLUGO |
| Aircraft | A321/M-SDE3FGHIRWY/LB1 |
Departure
| Time | 2026-05-04 18:05 |
|---|---|
| Airport | Fort Lauderdale Hollywood International Airport (KFLL) |
Arrival
| Time | 2026-05-04 20:31 |
|---|---|
| Airport | Princess Juliana International Airport (TNCM) |
| Time | Latitude | Longitude | Altitude | Speed | Heading |
|---|---|---|---|---|---|
| 2026-05-04 17:13 | 26.06880 | -80.14554 | -3 ft | 0 kts | 24° |
| 2026-05-04 17:50 | 26.06874 | -80.14557 | 17 ft | 3 kts | 24° |
| 2026-05-04 17:51 | 26.06858 | -80.14565 | 16 ft | 3 kts | 24° |
| 2026-05-04 17:51 | 26.06840 | -80.14569 | 17 ft | 3 kts | 331° |
| 2026-05-04 17:51 | 26.06836 | -80.14567 | 17 ft | 0 kts | 321° |
| 2026-05-04 17:57 | 26.06847 | -80.14581 | 18 ft | 5 kts | 307° |
| 2026-05-04 17:57 | 26.06874 | -80.14637 | 16 ft | 11 kts | 306° |
| 2026-05-04 17:58 | 26.06926 | -80.14698 | 16 ft | 10 kts | 316° |
| 2026-05-04 17:58 | 26.06941 | -80.14763 | 17 ft | 9 kts | 245° |
| 2026-05-04 17:58 | 26.06914 | -80.14822 | 18 ft | 8 kts | 250° |
| 2026-05-04 17:58 | 26.06910 | -80.14882 | 16 ft | 8 kts | 271° |
| 2026-05-04 17:59 | 26.06911 | -80.14938 | 16 ft | 7 kts | 271° |
| 2026-05-04 17:59 | 26.06912 | -80.14989 | 16 ft | 6 kts | 271° |
| 2026-05-04 17:59 | 26.06912 | -80.15085 | 16 ft | 6 kts | 264° |
| 2026-05-04 18:00 | 26.06884 | -80.15124 | 16 ft | 8 kts | 202° |
| 2026-05-04 18:00 | 26.06826 | -80.15128 | 16 ft | 8 kts | 180° |
| 2026-05-04 18:00 | 26.06771 | -80.15128 | 7 ft | 7 kts | 181° |
| 2026-05-04 18:00 | 26.06722 | -80.15133 | 16 ft | 7 kts | 196° |
| 2026-05-04 18:01 | 26.06696 | -80.15179 | 16 ft | 9 kts | 262° |
| 2026-05-04 18:01 | 26.06695 | -80.15261 | 16 ft | 12 kts | 270° |
| 2026-05-04 18:01 | 26.06695 | -80.15354 | 16 ft | 11 kts | 270° |
| 2026-05-04 18:02 | 26.06696 | -80.15512 | 16 ft | 9 kts | 270° |
| 2026-05-04 18:02 | 26.06697 | -80.15579 | 16 ft | 8 kts | 270° |
| 2026-05-04 18:02 | 26.06697 | -80.15641 | 16 ft | 8 kts | 270° |
| 2026-05-04 18:02 | 26.06698 | -80.15699 | 16 ft | 8 kts | 270° |
| 2026-05-04 18:03 | 26.06698 | -80.15767 | 16 ft | 9 kts | 268° |
| 2026-05-04 18:03 | 26.06688 | -80.15800 | 16 ft | 0 kts | 238° |
| 2026-05-04 18:03 | 26.06684 | -80.15805 | 18 ft | 2 kts | 230° |
| 2026-05-04 18:04 | 26.06658 | -80.15817 | 16 ft | 6 kts | 188° |
| 2026-05-04 18:04 | 26.06614 | -80.15815 | 18 ft | 5 kts | 163° |
| 2026-05-04 18:04 | 26.06590 | -80.15641 | 23 ft | 37 kts | 89° |
| 2026-05-04 18:05 | 26.06587 | -80.15034 | 26 ft | 116 kts | 90° |
| 2026-05-04 18:05 | 26.06583 | -80.13949 | 405 ft | 146 kts | 87° |
| 2026-05-04 18:05 | 26.06586 | -80.12790 | 1273 ft | 154 kts | 83° |
| 2026-05-04 18:05 | 26.06603 | -80.11583 | 1926 ft | 165 kts | 82° |
| 2026-05-04 18:06 | 26.06681 | -80.08649 | 2549 ft | 213 kts | 85° |
| 2026-05-04 18:06 | 26.06714 | -80.06881 | 2767 ft | 240 kts | 85° |
| 2026-05-04 18:06 | 26.06734 | -80.04984 | 3197 ft | 257 kts | 85° |
| 2026-05-04 18:07 | 26.06746 | -80.02979 | 3906 ft | 261 kts | 86° |
| 2026-05-04 18:07 | 26.06751 | -80.00924 | 4574 ft | 270 kts | 87° |
| 2026-05-04 18:07 | 26.06746 | -79.98815 | 5280 ft | 276 kts | 87° |
| 2026-05-04 18:07 | 26.06688 | -79.96663 | 5969 ft | 282 kts | 89° |
| 2026-05-04 18:08 | 26.06639 | -79.94447 | 6674 ft | 289 kts | 90° |
| 2026-05-04 18:08 | 26.06605 | -79.92185 | 7320 ft | 298 kts | 90° |
| 2026-05-04 18:08 | 26.06584 | -79.89852 | 8027 ft | 305 kts | 90° |
| 2026-05-04 18:08 | 26.06572 | -79.87480 | 8721 ft | 309 kts | 90° |
| 2026-05-04 18:09 | 26.06482 | -79.82661 | 9985 ft | 319 kts | 99° |
| 2026-05-04 18:09 | 26.05696 | -79.77511 | 10408 ft | 360 kts | 101° |
| 2026-05-04 18:10 | 26.05256 | -79.74719 | 10804 ft | 371 kts | 101° |
| 2026-05-04 18:10 | 26.04809 | -79.71873 | 11360 ft | 376 kts | 101° |
| 2026-05-04 18:10 | 26.04359 | -79.68991 | 11955 ft | 381 kts | 101° |
| 2026-05-04 18:10 | 26.03904 | -79.66074 | 12552 ft | 385 kts | 101° |
| 2026-05-04 18:11 | 26.03398 | -79.63137 | 13160 ft | 389 kts | 104° |
| 2026-05-04 18:11 | 26.02784 | -79.60232 | 13780 ft | 393 kts | 107° |
| 2026-05-04 18:11 | 26.02080 | -79.57285 | 14303 ft | 397 kts | 108° |
| 2026-05-04 18:11 | 26.01333 | -79.54318 | 14820 ft | 400 kts | 108° |
| 2026-05-04 18:12 | 26.00577 | -79.51327 | 15343 ft | 404 kts | 108° |
| 2026-05-04 18:12 | 25.99829 | -79.48309 | 15866 ft | 407 kts | 108° |
| 2026-05-04 18:12 | 25.99091 | -79.45254 | 16385 ft | 411 kts | 108° |
| 2026-05-04 18:12 | 25.98357 | -79.42167 | 16887 ft | 415 kts | 107° |
| 2026-05-04 18:13 | 25.97621 | -79.39056 | 17374 ft | 418 kts | 109° |
| 2026-05-04 18:13 | 25.96662 | -79.36003 | 17859 ft | 420 kts | 114° |
| 2026-05-04 18:13 | 25.94572 | -79.29944 | 18793 ft | 426 kts | 114° |
| 2026-05-04 18:14 | 25.93502 | -79.26870 | 19237 ft | 428 kts | 114° |
| 2026-05-04 18:14 | 25.92422 | -79.23775 | 19683 ft | 431 kts | 114° |
| 2026-05-04 18:14 | 25.91334 | -79.20661 | 20136 ft | 434 kts | 114° |
| 2026-05-04 18:15 | 25.89137 | -79.14373 | 21025 ft | 439 kts | 114° |
| 2026-05-04 18:15 | 25.86914 | -79.08003 | 21911 ft | 445 kts | 114° |
| 2026-05-04 18:15 | 25.85803 | -79.04838 | 22335 ft | 448 kts | 114° |
| 2026-05-04 18:16 | 25.84670 | -79.01608 | 22794 ft | 450 kts | 114° |
| 2026-05-04 18:16 | 25.83534 | -78.98359 | 23186 ft | 453 kts | 114° |
| 2026-05-04 18:16 | 25.82391 | -78.95089 | 23588 ft | 456 kts | 114° |
| 2026-05-04 18:17 | 25.80080 | -78.88501 | 24242 ft | 461 kts | 114° |
| 2026-05-04 18:17 | 25.78909 | -78.85175 | 24568 ft | 464 kts | 114° |
| 2026-05-04 18:17 | 25.76543 | -78.78478 | 25201 ft | 469 kts | 114° |
| 2026-05-04 18:18 | 25.75350 | -78.75097 | 25514 ft | 472 kts | 114° |
| 2026-05-04 18:18 | 25.74061 | -78.71802 | 25819 ft | 472 kts | 121° |
| 2026-05-04 18:18 | 25.72359 | -78.68696 | 26125 ft | 471 kts | 128° |
| 2026-05-04 18:18 | 25.70514 | -78.65689 | 26438 ft | 473 kts | 128° |
| 2026-05-04 18:19 | 25.66786 | -78.59627 | 27074 ft | 478 kts | 128° |
| 2026-05-04 18:19 | 25.64909 | -78.56570 | 27380 ft | 481 kts | 128° |
| 2026-05-04 18:19 | 25.63019 | -78.53496 | 27693 ft | 484 kts | 128° |
| 2026-05-04 18:20 | 25.61120 | -78.50412 | 27992 ft | 486 kts | 128° |
| 2026-05-04 18:20 | 25.59232 | -78.47289 | 28288 ft | 490 kts | 124° |
| 2026-05-04 18:20 | 25.57658 | -78.43911 | 28574 ft | 497 kts | 115° |
| 2026-05-04 18:20 | 25.56541 | -78.40323 | 28851 ft | 502 kts | 107° |
| 2026-05-04 18:21 | 25.55600 | -78.36588 | 29135 ft | 505 kts | 108° |
| 2026-05-04 18:21 | 25.54647 | -78.32837 | 29416 ft | 507 kts | 108° |
| 2026-05-04 18:21 | 25.53685 | -78.29073 | 29693 ft | 510 kts | 108° |
| 2026-05-04 18:21 | 25.52713 | -78.25289 | 29970 ft | 512 kts | 108° |
| 2026-05-04 18:22 | 25.51734 | -78.21488 | 30212 ft | 514 kts | 108° |
| 2026-05-04 18:22 | 25.50747 | -78.17673 | 30455 ft | 516 kts | 108° |
| 2026-05-04 18:22 | 25.49759 | -78.13845 | 30711 ft | 518 kts | 108° |
| 2026-05-04 18:22 | 25.48784 | -78.10058 | 30965 ft | 520 kts | 108° |
| 2026-05-04 18:23 | 25.47793 | -78.06202 | 31250 ft | 520 kts | 108° |
| 2026-05-04 18:23 | 25.46806 | -78.02358 | 31621 ft | 519 kts | 108° |
| 2026-05-04 18:23 | 25.45817 | -77.98519 | 31983 ft | 518 kts | 108° |
| 2026-05-04 18:23 | 25.44829 | -77.94693 | 32307 ft | 517 kts | 109° |
| 2026-05-04 18:24 | 25.43840 | -77.90879 | 32706 ft | 514 kts | 109° |
| 2026-05-04 18:24 | 25.42855 | -77.87085 | 33072 ft | 513 kts | 109° |
| 2026-05-04 18:24 | 25.41870 | -77.83297 | 33421 ft | 512 kts | 109° |
| 2026-05-04 18:24 | 25.40888 | -77.79515 | 33759 ft | 511 kts | 109° |
| 2026-05-04 18:25 | 25.39908 | -77.75738 | 34091 ft | 510 kts | 110° |
| 2026-05-04 18:25 | 25.38942 | -77.72020 | 34356 ft | 510 kts | 110° |
| 2026-05-04 18:25 | 25.37958 | -77.68251 | 34606 ft | 510 kts | 110° |
| 2026-05-04 18:25 | 25.36972 | -77.64481 | 34826 ft | 511 kts | 110° |
| 2026-05-04 18:26 | 25.35981 | -77.60700 | 34976 ft | 512 kts | 110° |
| 2026-05-04 18:26 | 25.34993 | -77.56929 | 35014 ft | 509 kts | 110° |
| 2026-05-04 18:26 | 25.33026 | -77.49418 | 35013 ft | 508 kts | 110° |
| 2026-05-04 18:27 | 25.31072 | -77.41964 | 35018 ft | 508 kts | 110° |
| 2026-05-04 18:27 | 25.28777 | -77.34641 | 35029 ft | 500 kts | 122° |
| 2026-05-04 18:28 | 25.25214 | -77.28124 | 35029 ft | 494 kts | 129° |
| 2026-05-04 18:28 | 25.21485 | -77.21737 | 35026 ft | 495 kts | 129° |
| 2026-05-04 18:29 | 25.17781 | -77.15393 | 35021 ft | 495 kts | 129° |
| 2026-05-04 18:29 | 25.14056 | -77.09007 | 35014 ft | 495 kts | 129° |
| 2026-05-04 18:30 | 25.08452 | -76.99435 | 35026 ft | 495 kts | 129° |
| 2026-05-04 18:31 | 25.04709 | -76.93066 | 35007 ft | 495 kts | 129° |
| 2026-05-04 18:31 | 25.00966 | -76.86694 | 35014 ft | 495 kts | 129° |
| 2026-05-04 18:32 | 24.97222 | -76.80325 | 35020 ft | 495 kts | 129° |
| 2026-05-04 18:32 | 24.93478 | -76.73958 | 35023 ft | 495 kts | 129° |
| 2026-05-04 18:33 | 24.89752 | -76.67630 | 35026 ft | 495 kts | 129° |
| 2026-05-04 18:33 | 24.86000 | -76.61264 | 35028 ft | 495 kts | 129° |
| 2026-05-04 18:34 | 24.82244 | -76.54906 | 35032 ft | 495 kts | 129° |
| 2026-05-04 18:34 | 24.78509 | -76.48596 | 35027 ft | 495 kts | 129° |
| 2026-05-04 18:35 | 24.74741 | -76.42248 | 35033 ft | 495 kts | 129° |
| 2026-05-04 18:35 | 24.70977 | -76.35904 | 35033 ft | 495 kts | 129° |
| 2026-05-04 18:36 | 24.67214 | -76.29563 | 35004 ft | 496 kts | 129° |
| 2026-05-04 18:36 | 24.63436 | -76.23213 | 35006 ft | 497 kts | 129° |
| 2026-05-04 18:37 | 24.59648 | -76.16864 | 35018 ft | 497 kts | 129° |
| 2026-05-04 18:37 | 24.55899 | -76.10536 | 35020 ft | 498 kts | 128° |
| 2026-05-04 18:38 | 24.52265 | -76.04050 | 35022 ft | 499 kts | 126° |
| 2026-05-04 18:38 | 24.48694 | -75.97524 | 35037 ft | 498 kts | 126° |
| 2026-05-04 18:39 | 24.45090 | -75.91024 | 35043 ft | 498 kts | 127° |
| 2026-05-04 18:39 | 24.41503 | -75.84658 | 35039 ft | 497 kts | 127° |
| 2026-05-04 18:40 | 24.37889 | -75.78246 | 35030 ft | 498 kts | 127° |
| 2026-05-04 18:40 | 24.34256 | -75.71788 | 35033 ft | 497 kts | 127° |
| 2026-05-04 18:41 | 24.30620 | -75.65336 | 34997 ft | 498 kts | 127° |
| 2026-05-04 18:41 | 24.26971 | -75.58873 | 35006 ft | 499 kts | 127° |
| 2026-05-04 18:42 | 24.23319 | -75.52395 | 35011 ft | 500 kts | 127° |
| 2026-05-04 18:42 | 24.19675 | -75.45956 | 35019 ft | 501 kts | 127° |
| 2026-05-04 18:43 | 24.15997 | -75.39472 | 35018 ft | 501 kts | 127° |
| 2026-05-04 18:43 | 24.12323 | -75.32981 | 35024 ft | 502 kts | 128° |
| 2026-05-04 18:44 | 24.08638 | -75.26493 | 35027 ft | 502 kts | 128° |
| 2026-05-04 18:44 | 24.04976 | -75.20044 | 35033 ft | 502 kts | 128° |
| 2026-05-04 18:45 | 24.01281 | -75.13560 | 35034 ft | 502 kts | 128° |
| 2026-05-04 18:45 | 23.97580 | -75.07086 | 35033 ft | 502 kts | 128° |
| 2026-05-04 18:46 | 23.93885 | -75.00609 | 35028 ft | 502 kts | 128° |
| 2026-05-04 18:46 | 23.90179 | -74.94134 | 35026 ft | 502 kts | 128° |
| 2026-05-04 18:47 | 23.86502 | -74.87703 | 35034 ft | 502 kts | 128° |
| 2026-05-04 18:47 | 23.82791 | -74.81236 | 35035 ft | 502 kts | 128° |
| 2026-05-04 18:48 | 23.79075 | -74.74767 | 35038 ft | 503 kts | 128° |
| 2026-05-04 18:48 | 23.75416 | -74.68397 | 35037 ft | 503 kts | 128° |
| 2026-05-04 18:49 | 23.71703 | -74.61936 | 35034 ft | 503 kts | 128° |
| 2026-05-04 18:49 | 23.67992 | -74.55473 | 35034 ft | 503 kts | 128° |
| 2026-05-04 18:50 | 23.64294 | -74.49064 | 35037 ft | 502 kts | 128° |
| 2026-05-04 18:50 | 23.60568 | -74.42614 | 35035 ft | 502 kts | 128° |
| 2026-05-04 18:51 | 23.56846 | -74.36176 | 35021 ft | 502 kts | 128° |
| 2026-05-04 18:51 | 23.53119 | -74.29751 | 35037 ft | 501 kts | 128° |
| 2026-05-04 18:52 | 23.49402 | -74.23341 | 35038 ft | 500 kts | 128° |
| 2026-05-04 18:52 | 23.45696 | -74.16944 | 35041 ft | 499 kts | 128° |
| 2026-05-04 18:53 | 23.42011 | -74.10604 | 35041 ft | 498 kts | 128° |
| 2026-05-04 18:53 | 23.38298 | -74.04233 | 35039 ft | 498 kts | 128° |
| 2026-05-04 18:54 | 23.34589 | -73.97867 | 35036 ft | 498 kts | 128° |
| 2026-05-04 18:54 | 23.30878 | -73.91507 | 35037 ft | 498 kts | 128° |
| 2026-05-04 18:55 | 23.27166 | -73.85151 | 35036 ft | 498 kts | 128° |
| 2026-05-04 18:55 | 23.21623 | -73.75672 | 35033 ft | 497 kts | 128° |
| 2026-05-04 18:56 | 23.18523 | -73.70413 | 35012 ft | 497 kts | 128° |
| 2026-05-04 18:56 | 23.14188 | -73.63001 | 35020 ft | 497 kts | 128° |
| 2026-05-04 18:57 | 23.10510 | -73.56702 | 35029 ft | 496 kts | 128° |
| 2026-05-04 18:57 | 23.06769 | -73.50403 | 35033 ft | 498 kts | 126° |
| 2026-05-04 18:58 | 23.02729 | -73.44468 | 34627 ft | 470 kts | 157° |
| 2026-05-04 18:58 | 22.99631 | -73.43279 | 31684 ft | 502 kts | 172° |
| 2026-05-04 18:58 | 22.96300 | -73.42242 | 31702 ft | 484 kts | 168° |
| 2026-05-04 18:59 | 22.93293 | -73.40720 | 31874 ft | 479 kts | 150° |
| 2026-05-04 18:59 | 22.90912 | -73.38218 | 31864 ft | 479 kts | 129° |
| 2026-05-04 18:59 | 22.89454 | -73.35004 | 31860 ft | 474 kts | 110° |
| 2026-05-04 18:59 | 22.88867 | -73.32746 | 31856 ft | 466 kts | 109° |
| 2026-05-04 19:00 | 22.86871 | -73.24823 | 31854 ft | 475 kts | 109° |
| 2026-05-04 19:00 | 22.85099 | -73.17849 | 31941 ft | 490 kts | 109° |
| 2026-05-04 19:01 | 22.84187 | -73.14272 | 32063 ft | 495 kts | 109° |
| 2026-05-04 19:01 | 22.83110 | -73.10730 | 32160 ft | 494 kts | 119° |
| 2026-05-04 19:01 | 22.81442 | -73.07507 | 32400 ft | 489 kts | 127° |
| 2026-05-04 19:01 | 22.79611 | -73.04405 | 32720 ft | 488 kts | 127° |
| 2026-05-04 19:02 | 22.77831 | -73.01411 | 33031 ft | 488 kts | 128° |
| 2026-05-04 19:02 | 22.75986 | -72.98321 | 33329 ft | 488 kts | 128° |
| 2026-05-04 19:02 | 22.74143 | -72.95232 | 33629 ft | 488 kts | 128° |
| 2026-05-04 19:02 | 22.72326 | -72.92184 | 33914 ft | 489 kts | 128° |
| 2026-05-04 19:03 | 22.70482 | -72.89087 | 34168 ft | 489 kts | 128° |
| 2026-05-04 19:03 | 22.68634 | -72.85989 | 34412 ft | 490 kts | 128° |
| 2026-05-04 19:03 | 22.66782 | -72.82889 | 34649 ft | 490 kts | 128° |
| 2026-05-04 19:03 | 22.64929 | -72.79785 | 34886 ft | 491 kts | 128° |
| 2026-05-04 19:04 | 22.63073 | -72.76677 | 34996 ft | 493 kts | 128° |
| 2026-05-04 19:04 | 22.61213 | -72.73559 | 35020 ft | 493 kts | 128° |
| 2026-05-04 19:04 | 22.57519 | -72.67370 | 35015 ft | 493 kts | 128° |
| 2026-05-04 19:05 | 22.53800 | -72.61148 | 35015 ft | 492 kts | 128° |
| 2026-05-04 19:05 | 22.50079 | -72.54932 | 35015 ft | 492 kts | 128° |
| 2026-05-04 19:06 | 22.46361 | -72.48728 | 35016 ft | 492 kts | 128° |
| 2026-05-04 19:06 | 22.42640 | -72.42526 | 35021 ft | 491 kts | 128° |
| 2026-05-04 19:07 | 22.38942 | -72.36380 | 35031 ft | 491 kts | 128° |
| 2026-05-04 19:07 | 22.35214 | -72.30203 | 35033 ft | 490 kts | 128° |
| 2026-05-04 19:08 | 22.31493 | -72.24030 | 35036 ft | 490 kts | 127° |
| 2026-05-04 19:08 | 22.27778 | -72.17867 | 35036 ft | 489 kts | 127° |
| 2026-05-04 19:09 | 22.24692 | -72.12755 | 35035 ft | 489 kts | 127° |
| 2026-05-04 19:09 | 22.20375 | -72.05621 | 35035 ft | 488 kts | 128° |
| 2026-05-04 19:10 | 22.16663 | -71.99485 | 35034 ft | 488 kts | 127° |
| 2026-05-04 19:10 | 22.12952 | -71.93357 | 35033 ft | 488 kts | 128° |
| 2026-05-04 19:11 | 22.09236 | -71.87233 | 35032 ft | 488 kts | 127° |
| 2026-05-04 19:11 | 22.05522 | -71.81123 | 35023 ft | 487 kts | 127° |
| 2026-05-04 19:12 | 21.99985 | -71.72028 | 35037 ft | 485 kts | 127° |
| 2026-05-04 19:13 | 21.96891 | -71.66937 | 35040 ft | 485 kts | 127° |
| 2026-05-04 19:13 | 21.93218 | -71.60913 | 35039 ft | 484 kts | 127° |
| 2026-05-04 19:14 | 21.88888 | -71.53841 | 35033 ft | 484 kts | 127° |
| 2026-05-04 19:14 | 21.85817 | -71.48817 | 35034 ft | 483 kts | 127° |
| 2026-05-04 19:15 | 21.81528 | -71.41788 | 35036 ft | 483 kts | 127° |
| 2026-05-04 19:15 | 21.77836 | -71.35750 | 35036 ft | 483 kts | 127° |
| 2026-05-04 19:16 | 21.74137 | -71.29719 | 35036 ft | 483 kts | 127° |
| 2026-05-04 19:16 | 21.71059 | -71.24711 | 35036 ft | 483 kts | 127° |
| 2026-05-04 19:17 | 21.66733 | -71.17674 | 35024 ft | 483 kts | 127° |
| 2026-05-04 19:17 | 21.63658 | -71.12670 | 35030 ft | 482 kts | 127° |
| 2026-05-04 19:18 | 21.59353 | -71.05683 | 35033 ft | 482 kts | 127° |
| 2026-05-04 19:18 | 21.56240 | -71.00658 | 35032 ft | 482 kts | 128° |
| 2026-05-04 19:19 | 21.52493 | -70.94745 | 35032 ft | 482 kts | 128° |
| 2026-05-04 19:19 | 21.48699 | -70.88820 | 35034 ft | 482 kts | 128° |
| 2026-05-04 19:20 | 21.44903 | -70.82892 | 35032 ft | 482 kts | 128° |
| 2026-05-04 19:20 | 21.41126 | -70.76958 | 35032 ft | 482 kts | 128° |
| 2026-05-04 19:21 | 21.37341 | -70.71023 | 35029 ft | 482 kts | 128° |
| 2026-05-04 19:21 | 21.33581 | -70.65141 | 35032 ft | 482 kts | 128° |
| 2026-05-04 19:22 | 21.29790 | -70.59216 | 35016 ft | 481 kts | 128° |
| 2026-05-04 19:22 | 21.25999 | -70.53298 | 35018 ft | 481 kts | 128° |
| 2026-05-04 19:23 | 21.22218 | -70.47384 | 35035 ft | 481 kts | 128° |
| 2026-05-04 19:23 | 21.18460 | -70.41515 | 35033 ft | 481 kts | 128° |
| 2026-05-04 19:24 | 21.14677 | -70.35613 | 35032 ft | 480 kts | 128° |
| 2026-05-04 19:24 | 21.10887 | -70.29718 | 35031 ft | 480 kts | 128° |
| 2026-05-04 19:25 | 21.07094 | -70.23829 | 35026 ft | 480 kts | 128° |
| 2026-05-04 19:25 | 21.03328 | -70.17985 | 35029 ft | 480 kts | 128° |
| 2026-05-04 19:26 | 20.99533 | -70.12108 | 35037 ft | 480 kts | 128° |
| 2026-05-04 19:26 | 20.95741 | -70.06232 | 35033 ft | 480 kts | 128° |
| 2026-05-04 19:27 | 20.91956 | -70.00359 | 35033 ft | 479 kts | 128° |
| 2026-05-04 19:27 | 20.88160 | -69.94499 | 35026 ft | 479 kts | 128° |
| 2026-05-04 19:28 | 20.84387 | -69.88683 | 35028 ft | 479 kts | 128° |
| 2026-05-04 19:28 | 20.80601 | -69.82830 | 35030 ft | 479 kts | 128° |
| 2026-05-04 19:29 | 20.76817 | -69.76984 | 35035 ft | 478 kts | 128° |
| 2026-05-04 19:29 | 20.73026 | -69.71148 | 35034 ft | 478 kts | 128° |
| 2026-05-04 19:30 | 20.69235 | -69.65313 | 35036 ft | 478 kts | 128° |
| 2026-05-04 19:30 | 20.65466 | -69.59525 | 35038 ft | 478 kts | 128° |
| 2026-05-04 19:31 | 20.61669 | -69.53706 | 35037 ft | 478 kts | 128° |
| 2026-05-04 19:31 | 20.57874 | -69.47887 | 35039 ft | 478 kts | 128° |
| 2026-05-04 19:32 | 20.54076 | -69.42068 | 35040 ft | 478 kts | 128° |
| 2026-05-04 19:32 | 20.50304 | -69.36293 | 35024 ft | 477 kts | 127° |
| 2026-05-04 19:33 | 20.46512 | -69.30485 | 35038 ft | 477 kts | 127° |
| 2026-05-04 19:33 | 20.42717 | -69.24680 | 35041 ft | 477 kts | 128° |
| 2026-05-04 19:34 | 20.38915 | -69.18890 | 35037 ft | 477 kts | 128° |
| 2026-05-04 19:34 | 20.35141 | -69.13142 | 35039 ft | 476 kts | 127° |
| 2026-05-04 19:35 | 20.31349 | -69.07357 | 35046 ft | 476 kts | 127° |
| 2026-05-04 19:35 | 20.27551 | -69.01577 | 35045 ft | 476 kts | 128° |
| 2026-05-04 19:36 | 20.23749 | -68.95809 | 35042 ft | 476 kts | 127° |
| 2026-05-04 19:36 | 20.19978 | -68.90075 | 35043 ft | 476 kts | 127° |
| 2026-05-04 19:37 | 20.16177 | -68.84306 | 35044 ft | 476 kts | 127° |
| 2026-05-04 19:37 | 20.12376 | -68.78549 | 35048 ft | 475 kts | 127° |
| 2026-05-04 19:38 | 20.08576 | -68.72795 | 35049 ft | 475 kts | 127° |
| 2026-05-04 19:38 | 20.04877 | -68.67030 | 35051 ft | 475 kts | 126° |
| 2026-05-04 19:39 | 20.01278 | -68.61134 | 35053 ft | 475 kts | 125° |
| 2026-05-04 19:39 | 19.97683 | -68.55232 | 35054 ft | 475 kts | 126° |
| 2026-05-04 19:40 | 19.94057 | -68.49363 | 35051 ft | 475 kts | 126° |
| 2026-05-04 19:40 | 19.90416 | -68.43510 | 35051 ft | 475 kts | 126° |
| 2026-05-04 19:41 | 19.86797 | -68.37702 | 35053 ft | 474 kts | 126° |
| 2026-05-04 19:41 | 19.83158 | -68.31856 | 35052 ft | 474 kts | 126° |
| 2026-05-04 19:42 | 19.79522 | -68.26004 | 35052 ft | 474 kts | 126° |
| 2026-05-04 19:42 | 19.75881 | -68.20167 | 35052 ft | 474 kts | 126° |
| 2026-05-04 19:43 | 19.72262 | -68.14369 | 35045 ft | 474 kts | 125° |
| 2026-05-04 19:43 | 19.68627 | -68.08535 | 35051 ft | 474 kts | 125° |
| 2026-05-04 19:44 | 19.64984 | -68.02710 | 35055 ft | 474 kts | 126° |
| 2026-05-04 19:44 | 19.61344 | -67.96886 | 35054 ft | 473 kts | 125° |
| 2026-05-04 19:45 | 19.57732 | -67.91109 | 35050 ft | 473 kts | 126° |
| 2026-05-04 19:45 | 19.54086 | -67.85298 | 35051 ft | 473 kts | 126° |
| 2026-05-04 19:46 | 19.50444 | -67.79487 | 35055 ft | 473 kts | 126° |
| 2026-05-04 19:46 | 19.46802 | -67.73680 | 35053 ft | 473 kts | 126° |
| 2026-05-04 19:47 | 19.43178 | -67.67918 | 35051 ft | 473 kts | 126° |
| 2026-05-04 19:47 | 19.39521 | -67.62121 | 35051 ft | 473 kts | 126° |
| 2026-05-04 19:48 | 19.35869 | -67.56328 | 35051 ft | 473 kts | 126° |
| 2026-05-04 19:48 | 19.32224 | -67.50534 | 35046 ft | 473 kts | 125° |
| 2026-05-04 19:49 | 19.28578 | -67.44748 | 35053 ft | 472 kts | 125° |
| 2026-05-04 19:49 | 19.24955 | -67.39007 | 35052 ft | 472 kts | 126° |
| 2026-05-04 19:50 | 19.21311 | -67.33238 | 35048 ft | 472 kts | 126° |
| 2026-05-04 19:50 | 19.17660 | -67.27472 | 35049 ft | 471 kts | 126° |
| 2026-05-04 19:51 | 19.14034 | -67.21747 | 35054 ft | 471 kts | 126° |
| 2026-05-04 19:51 | 19.10388 | -67.15989 | 35055 ft | 471 kts | 126° |
| 2026-05-04 19:52 | 19.06739 | -67.10244 | 35050 ft | 471 kts | 126° |
| 2026-05-04 19:52 | 19.03092 | -67.04500 | 35049 ft | 470 kts | 126° |
| 2026-05-04 19:53 | 18.99474 | -66.98804 | 35048 ft | 470 kts | 126° |
| 2026-05-04 19:53 | 18.95824 | -66.93070 | 35046 ft | 470 kts | 126° |
| 2026-05-04 19:54 | 18.92181 | -66.87346 | 35033 ft | 470 kts | 126° |
| 2026-05-04 19:54 | 18.88536 | -66.81625 | 35037 ft | 469 kts | 126° |
| 2026-05-04 19:55 | 18.84912 | -66.75949 | 35032 ft | 469 kts | 126° |
| 2026-05-04 19:55 | 18.81267 | -66.70231 | 35029 ft | 469 kts | 126° |
| 2026-05-04 19:56 | 18.77730 | -66.64437 | 35022 ft | 471 kts | 118° |
| 2026-05-04 19:56 | 18.76490 | -66.61242 | 35027 ft | 472 kts | 107° |
| 2026-05-04 19:56 | 18.75768 | -66.57863 | 35028 ft | 473 kts | 98° |
| 2026-05-04 19:57 | 18.75273 | -66.50991 | 35025 ft | 473 kts | 94° |
| 2026-05-04 19:57 | 18.74816 | -66.44066 | 35025 ft | 473 kts | 94° |
| 2026-05-04 19:58 | 18.74347 | -66.37134 | 35030 ft | 474 kts | 94° |
| 2026-05-04 19:58 | 18.73871 | -66.30206 | 35033 ft | 474 kts | 94° |
| 2026-05-04 19:59 | 18.73405 | -66.23322 | 35043 ft | 474 kts | 94° |
| 2026-05-04 19:59 | 18.72933 | -66.16396 | 35049 ft | 473 kts | 94° |
| 2026-05-04 20:00 | 18.72465 | -66.09483 | 35051 ft | 472 kts | 94° |
| 2026-05-04 20:00 | 18.71995 | -66.02578 | 35051 ft | 472 kts | 94° |
| 2026-05-04 20:01 | 18.71524 | -65.95729 | 35056 ft | 471 kts | 94° |
| 2026-05-04 20:01 | 18.71047 | -65.88835 | 35056 ft | 471 kts | 94° |
| 2026-05-04 20:02 | 18.70565 | -65.81947 | 35059 ft | 471 kts | 94° |
| 2026-05-04 20:02 | 18.70080 | -65.75065 | 35058 ft | 470 kts | 94° |
| 2026-05-04 20:03 | 18.69594 | -65.68186 | 35062 ft | 470 kts | 94° |
| 2026-05-04 20:03 | 18.69111 | -65.61356 | 35064 ft | 470 kts | 94° |
| 2026-05-04 20:04 | 18.68631 | -65.54600 | 35064 ft | 470 kts | 94° |
| 2026-05-04 20:04 | 18.68141 | -65.47730 | 35070 ft | 470 kts | 94° |
| 2026-05-04 20:05 | 18.67647 | -65.40863 | 35069 ft | 470 kts | 94° |
| 2026-05-04 20:05 | 18.66928 | -65.34069 | 35068 ft | 470 kts | 99° |
| 2026-05-04 20:06 | 18.65820 | -65.27282 | 35068 ft | 470 kts | 99° |
| 2026-05-04 20:06 | 18.64719 | -65.20492 | 35066 ft | 470 kts | 99° |
| 2026-05-04 20:07 | 18.63609 | -65.13702 | 35065 ft | 470 kts | 99° |
| 2026-05-04 20:07 | 18.62493 | -65.06918 | 35059 ft | 470 kts | 99° |
| 2026-05-04 20:08 | 18.61380 | -65.00146 | 35019 ft | 474 kts | 99° |
| 2026-05-04 20:08 | 18.60249 | -64.93280 | 35021 ft | 477 kts | 99° |
| 2026-05-04 20:09 | 18.59109 | -64.86376 | 35025 ft | 479 kts | 99° |
| 2026-05-04 20:09 | 18.57966 | -64.79456 | 35034 ft | 480 kts | 99° |
| 2026-05-04 20:09 | 18.57398 | -64.76038 | 34645 ft | 482 kts | 99° |
| 2026-05-04 20:10 | 18.56816 | -64.72549 | 34010 ft | 483 kts | 99° |
| 2026-05-04 20:10 | 18.56240 | -64.69093 | 33120 ft | 475 kts | 99° |
| 2026-05-04 20:10 | 18.55677 | -64.65693 | 32061 ft | 468 kts | 99° |
| 2026-05-04 20:10 | 18.55122 | -64.62346 | 31063 ft | 459 kts | 98° |
| 2026-05-04 20:11 | 18.54577 | -64.59059 | 30117 ft | 450 kts | 98° |
| 2026-05-04 20:11 | 18.54040 | -64.55840 | 29012 ft | 442 kts | 98° |
| 2026-05-04 20:11 | 18.53511 | -64.52681 | 27958 ft | 434 kts | 98° |
| 2026-05-04 20:11 | 18.52993 | -64.49584 | 26975 ft | 425 kts | 99° |
| 2026-05-04 20:12 | 18.52494 | -64.46591 | 26042 ft | 416 kts | 99° |
| 2026-05-04 20:12 | 18.52000 | -64.43621 | 25222 ft | 406 kts | 99° |
| 2026-05-04 20:12 | 18.51525 | -64.40771 | 24935 ft | 382 kts | 99° |
| 2026-05-04 20:12 | 18.51066 | -64.38035 | 24577 ft | 378 kts | 100° |
| 2026-05-04 20:13 | 18.50607 | -64.35308 | 24153 ft | 377 kts | 100° |
| 2026-05-04 20:13 | 18.50149 | -64.32589 | 23725 ft | 377 kts | 100° |
| 2026-05-04 20:13 | 18.49692 | -64.29876 | 23229 ft | 376 kts | 100° |
| 2026-05-04 20:13 | 18.49238 | -64.27167 | 22712 ft | 375 kts | 100° |
| 2026-05-04 20:14 | 18.48790 | -64.24502 | 22212 ft | 374 kts | 100° |
| 2026-05-04 20:14 | 18.48334 | -64.21808 | 21709 ft | 373 kts | 100° |
| 2026-05-04 20:14 | 18.47881 | -64.19123 | 21219 ft | 372 kts | 100° |
| 2026-05-04 20:14 | 18.47427 | -64.16439 | 20736 ft | 372 kts | 100° |
| 2026-05-04 20:15 | 18.46974 | -64.13760 | 20257 ft | 371 kts | 100° |
| 2026-05-04 20:15 | 18.46523 | -64.11089 | 19792 ft | 370 kts | 100° |
| 2026-05-04 20:15 | 18.46070 | -64.08419 | 19329 ft | 370 kts | 100° |
| 2026-05-04 20:15 | 18.45616 | -64.05756 | 18882 ft | 369 kts | 100° |
| 2026-05-04 20:16 | 18.45165 | -64.03099 | 18434 ft | 368 kts | 100° |
| 2026-05-04 20:16 | 18.44723 | -64.00495 | 18139 ft | 362 kts | 100° |
| 2026-05-04 20:16 | 18.44281 | -63.97899 | 17884 ft | 359 kts | 100° |
| 2026-05-04 20:16 | 18.43844 | -63.95330 | 17544 ft | 354 kts | 100° |
| 2026-05-04 20:17 | 18.43411 | -63.92786 | 17130 ft | 352 kts | 100° |
| 2026-05-04 20:17 | 18.42980 | -63.90255 | 16709 ft | 350 kts | 100° |
| 2026-05-04 20:17 | 18.42552 | -63.87736 | 16283 ft | 349 kts | 100° |
| 2026-05-04 20:17 | 18.42125 | -63.85227 | 15870 ft | 347 kts | 100° |
| 2026-05-04 20:18 | 18.41707 | -63.82767 | 15462 ft | 345 kts | 100° |
| 2026-05-04 20:18 | 18.41282 | -63.80289 | 15057 ft | 343 kts | 101° |
| 2026-05-04 20:18 | 18.40860 | -63.77827 | 14644 ft | 341 kts | 101° |
| 2026-05-04 20:18 | 18.40440 | -63.75379 | 14242 ft | 339 kts | 101° |
| 2026-05-04 20:19 | 18.40023 | -63.72946 | 13841 ft | 337 kts | 101° |
| 2026-05-04 20:19 | 18.39610 | -63.70532 | 13401 ft | 334 kts | 101° |
| 2026-05-04 20:19 | 18.39089 | -63.68170 | 12986 ft | 329 kts | 111° |
| 2026-05-04 20:19 | 18.38052 | -63.66051 | 12604 ft | 324 kts | 126° |
| 2026-05-04 20:20 | 18.36562 | -63.64305 | 12201 ft | 317 kts | 137° |
| 2026-05-04 20:20 | 18.35016 | -63.62781 | 11839 ft | 304 kts | 137° |
| 2026-05-04 20:20 | 18.33482 | -63.61260 | 11460 ft | 303 kts | 137° |
| 2026-05-04 20:20 | 18.31954 | -63.59740 | 11093 ft | 301 kts | 137° |
| 2026-05-04 20:21 | 18.30435 | -63.58226 | 10717 ft | 300 kts | 137° |
| 2026-05-04 20:21 | 18.28920 | -63.56721 | 10342 ft | 299 kts | 137° |
| 2026-05-04 20:21 | 18.25896 | -63.53722 | 9568 ft | 298 kts | 137° |
| 2026-05-04 20:22 | 18.24403 | -63.52242 | 9184 ft | 288 kts | 137° |
| 2026-05-04 20:22 | 18.23010 | -63.50860 | 8849 ft | 270 kts | 137° |
| 2026-05-04 20:22 | 18.21649 | -63.49509 | 8516 ft | 269 kts | 136° |
| 2026-05-04 20:22 | 18.20294 | -63.48166 | 8176 ft | 267 kts | 136° |
| 2026-05-04 20:23 | 18.18945 | -63.46830 | 7840 ft | 265 kts | 136° |
| 2026-05-04 20:23 | 18.17606 | -63.45504 | 7504 ft | 264 kts | 136° |
| 2026-05-04 20:23 | 18.16268 | -63.44182 | 7162 ft | 264 kts | 136° |
| 2026-05-04 20:23 | 18.14933 | -63.42864 | 6833 ft | 263 kts | 136° |
| 2026-05-04 20:24 | 18.13600 | -63.41545 | 6479 ft | 264 kts | 136° |
| 2026-05-04 20:24 | 18.12301 | -63.40259 | 6090 ft | 253 kts | 135° |
| 2026-05-04 20:24 | 18.11059 | -63.39032 | 5763 ft | 237 kts | 135° |
| 2026-05-04 20:24 | 18.09892 | -63.37877 | 5479 ft | 226 kts | 136° |
| 2026-05-04 20:25 | 18.08762 | -63.36759 | 5197 ft | 221 kts | 135° |
| 2026-05-04 20:25 | 18.07653 | -63.35663 | 4890 ft | 217 kts | 135° |
| 2026-05-04 20:25 | 18.06568 | -63.34590 | 4607 ft | 212 kts | 135° |
| 2026-05-04 20:25 | 18.05510 | -63.33541 | 4327 ft | 207 kts | 135° |
| 2026-05-04 20:26 | 18.04475 | -63.32516 | 4058 ft | 202 kts | 136° |
| 2026-05-04 20:26 | 18.03479 | -63.31532 | 3801 ft | 197 kts | 136° |
| 2026-05-04 20:26 | 18.02506 | -63.30531 | 3545 ft | 194 kts | 129° |
| 2026-05-04 20:26 | 18.01855 | -63.29300 | 3292 ft | 194 kts | 109° |
| 2026-05-04 20:27 | 18.01664 | -63.27903 | 3028 ft | 195 kts | 90° |
| 2026-05-04 20:27 | 18.01849 | -63.26515 | 2788 ft | 187 kts | 84° |
| 2026-05-04 20:27 | 18.02042 | -63.25202 | 2524 ft | 177 kts | 84° |
| 2026-05-04 20:27 | 18.02223 | -63.23956 | 2294 ft | 166 kts | 85° |
| 2026-05-04 20:28 | 18.02388 | -63.22832 | 2077 ft | 152 kts | 85° |
| 2026-05-04 20:28 | 18.02546 | -63.21750 | 1867 ft | 148 kts | 84° |
| 2026-05-04 20:28 | 18.02698 | -63.20691 | 1666 ft | 147 kts | 85° |
| 2026-05-04 20:28 | 18.02847 | -63.19648 | 1485 ft | 141 kts | 86° |
| 2026-05-04 20:29 | 18.02991 | -63.18645 | 1294 ft | 138 kts | 86° |
| 2026-05-04 20:29 | 18.03130 | -63.17663 | 1112 ft | 134 kts | 84° |
| 2026-05-04 20:29 | 18.03267 | -63.16695 | 944 ft | 133 kts | 84° |
| 2026-05-04 20:29 | 18.03406 | -63.15734 | 765 ft | 135 kts | 84° |
| 2026-05-04 20:30 | 18.03551 | -63.14776 | 570 ft | 133 kts | 83° |
| 2026-05-04 20:30 | 18.03673 | -63.13814 | 406 ft | 134 kts | 85° |
| 2026-05-04 20:30 | 18.03814 | -63.12852 | 244 ft | 133 kts | 82° |
| 2026-05-04 20:30 | 18.03951 | -63.11885 | 67 ft | 134 kts | 81° |
| 2026-05-04 20:31 | 18.04075 | -63.10992 | 22 ft | 108 kts | 82° |
| 2026-05-04 20:31 | 18.04150 | -63.10465 | 20 ft | 21 kts | 81° |
| 2026-05-04 20:31 | 18.04173 | -63.10314 | 20 ft | 21 kts | 81° |
| 2026-05-04 20:31 | 18.04196 | -63.10166 | 20 ft | 20 kts | 80° |
| 2026-05-04 20:32 | 18.04221 | -63.10018 | 19 ft | 21 kts | 81° |
| 2026-05-04 20:32 | 18.04243 | -63.09947 | 20 ft | 9 kts | 59° |
| 2026-05-04 20:32 | 18.04282 | -63.09891 | 20 ft | 10 kts | 52° |
| 2026-05-04 20:32 | 18.04263 | -63.09841 | 21 ft | 9 kts | 168° |
| 2026-05-04 20:33 | 18.04232 | -63.09892 | 21 ft | 10 kts | 264° |
| 2026-05-04 20:33 | 18.04223 | -63.09987 | 19 ft | 15 kts | 263° |
| 2026-05-04 20:33 | 18.04204 | -63.10113 | 19 ft | 19 kts | 261° |
| 2026-05-04 20:33 | 18.04184 | -63.10257 | 20 ft | 21 kts | 262° |
| 2026-05-04 20:34 | 18.04163 | -63.10409 | 20 ft | 22 kts | 262° |
| 2026-05-04 20:34 | 18.04141 | -63.10568 | 25 ft | 22 kts | 262° |
| 2026-05-04 20:34 | 18.04118 | -63.10734 | 23 ft | 24 kts | 261° |
| 2026-05-04 20:34 | 18.04091 | -63.10909 | 21 ft | 25 kts | 261° |
| 2026-05-04 20:35 | 18.04065 | -63.11089 | 22 ft | 25 kts | 261° |
| 2026-05-04 20:35 | 18.04049 | -63.11204 | 21 ft | 11 kts | 262° |
| 2026-05-04 20:35 | 18.04077 | -63.11281 | 21 ft | 13 kts | 330° |
| 2026-05-04 20:35 | 18.04168 | -63.11301 | 22 ft | 14 kts | 352° |
| 2026-05-04 20:36 | 18.04239 | -63.11309 | 21 ft | 8 kts | 5° |
| 2026-05-04 20:36 | 18.04294 | -63.11288 | 21 ft | 8 kts | 12° |
| 2026-05-04 20:36 | 18.04330 | -63.11291 | 21 ft | 5 kts | 348° |
| 2026-05-04 20:36 | 18.04338 | -63.11293 | 21 ft | 0 kts | 348° |